Regionale Übersicht

METAR et TAF

Vendredi 22 février 2019 à 11h35

Visibilités horizontales observées à différents aéroports. Les observations (METAR) et prévisions aéronautiques (TAF) complètes sont disponibles en cliquant sur l’icône correspondante.

  • Luxemburg (ELLX)

    Taf: TAF ELLX 220500Z 2206/2312 32005KT 7000 BKN020 TEMPO 2207/2215 2000 -DZ BR BKN005 PROB40 TEMPO 2208/2214 0200 FG DZ BKN001 BECMG 2213/2215 09008KT PROB30 TEMPO 2300/2306 0800 FG VV003=

    Metar: METAR ELLX 221020Z 04007KT 8000 SCT011 BKN014 10/07 Q1035 NOSIG=

  • Spangdahlem (ETAD)

    Taf: TAF ETAD 220500Z 2205/2311 26007KT 9999 OVC010 QNH3045INS BECMG 2205/2206 34006KT 3200 BR OVC010 QNH3045INS BECMG 2209/2210 02009KT 9000 BR OVC010 QNH3055INS BECMG 2211/2212 04010G15KT 9999 NSW OVC007 QNH3058INS BECMG 2218/2219 08006KT 5000 BR BKN005 QNH3060INS BECMG 2306/2307 08006KT 9999 NSW SCT010 QNH3055INS TX11/2213Z TN05/2205Z=

    Metar: nil

  • Metz/Nancy (LFJL)

    Taf: TAF LFJL 220500Z 2206/2306 VRB03KT 8000 BKN025 TEMPO 2206/2208 4000 BR BECMG 2213/2215 04008KT TEMPO 2213/2216 BKN010 BECMG 2220/2222 4000 BR BECMG 2300/2303 BKN005=

    Metar: nil

  • Saarbrücken/Intl (EDDR)

    Taf: TAF EDDR 220500Z 2206/2306 28004KT 9999 SCT010 BKN025 PROB30 TEMPO 2206/2210 2000 -DZ BR OVC008 BECMG 2209/2212 36005KT BECMG 2214/2217 06008KT PROB40 TEMPO 2302/2306 BKN010=

    Metar: nil

  • Hahn (EDFH)

    Taf: TAF AMD EDFH 220732Z 2207/2306 31004KT 9999 SCT004 PROB30 TEMPO 2207/2210 0300 -DZ FG VV001 BECMG 2209/2213 02007KT TEMPO 2210/2212 2000 BR BKN004 PROB30 TEMPO 2210/2214 BKN005 BECMG 2215/2218 09009KT BECMG 2222/2301 SCT007 BKN010 TEMPO 2301/2306 3000 BR BKN005=

    Metar: nil

  • Ramstein (ETAR)

    Taf: TAF ETAR 221008Z 2210/2316 VRB06KT 9000 BR BKN020 OVC030 QNH3052INS BECMG 2211/2212 VRB06KT 9999 NSW SCT020 BKN030 QNH3053INS BECMG 2218/2219 06009KT 9999 BKN020 QNH3062INS TEMPO 2221/2224 BKN015 TEMPO 2302/2305 BKN015 BECMG 2305/2306 07010G15KT 9999 FEW020 QNH3056INS TEMPO 2312/2316 07012G20KT TX12/2213Z TN00/2307Z=

    Metar: nil

  • Nancy/Ochey (LFSO)

    Taf: TAF LFSO 220800Z NIL=

    Metar: nil

  • Liège Bierset (EBLG)

    Taf: TAF EBLG 220500Z 2206/2312 01003KT 2500 BR BKN004 PROB40 TEMPO 2206/2210 0300 FG -DZ BKN001 BECMG 2211/2213 3500 BR SCT004 BKN007 BECMG 2213/2215 7000 NSW SCT010 BKN020 PROB30 TEMPO 2305/2308 4500 BR MIFG=

    Metar: nil

  • Saint-Dizier (LFSI)

    Taf: TAF LFSI 220800Z 2209/2309 VRB02KT 8000 SCT015 BKN030 BECMG 2210/2212 05010KT TEMPO 2302/2309 BKN005=

    Metar: nil

  • Maastricht/Zuid Limburg (EHBK)

    Taf: TAF EHBK 220517Z 2206/2312 27005KT 2000 BR BKN006 PROB40 2206/2211 0400 FG VV001 BECMG 2209/2212 4000 BECMG 2213/2216 9000 NSW BKN020=

    Metar: nil

  • Köln/Köln-Bonn (EDDK)

    Taf: TAF AMD EDDK 220724Z 2207/2312 33005KT 2500 -DZ BR BKN004 BECMG 2207/2209 3500 BKN006 BECMG 2209/2212 05005KT 6000 BKN012 BECMG 2212/2215 BKN030 BECMG 2218/2221 12007KT=

    Metar: METAR COR EDDK 221020Z 35004KT 310V020 8000 BKN006 10/09 Q1036 NOSIG=

  • Charleroi (EBCI)

    Taf: TAF EBCI 220500Z 2206/2312 02003KT 2500 BR BKN003 TEMPO 2206/2210 0200 FG BKN001 BECMG 2210/2212 3500 SCT003 BKN006 PROB30 TEMPO 2210/2214 2000 -DZ BKN003 BECMG 2214/2216 6000 NSW FEW010 BKN018 PROB30 TEMPO 2305/2308 4000 BR MIFG=

    Metar: nil

  • Wiesbaden (ETOU)

    Taf: TAF ETOU 220641Z 2204/2310 VRB06KT 9999 OVC020 QNH3041INS TEMPO 2204/2208 8000 BR BKN010 BECMG 2209/2210 03009KT 9999 BKN020 QNH3050INS BECMG 2217/2218 07006KT 9999 SCT030 QNH3068INS TX12/2215Z TN02/2304Z=

    Metar: nil

  • Karlsruhe/Baden-Baden (EDSB)

    Taf: TAF EDSB 220500Z 2206/2306 23004KT 9999 SCT020 BKN035 BECMG 2211/2214 04007KT=

    Metar: nil

  • Chalons/Vatry (LFOK)

    Taf: TAF LFOK 220500Z 2206/2306 VRB02KT 2000 BR NSC PROB40 2206/2209 0400 FG VV/// BECMG 2209/2211 8000 NSW BECMG 2213/2215 06010KT PROB30 TEMPO 2302/2306 4000 BR=

    Metar: nil

  • Brüssel (EBBR)

    Taf: TAF EBBR 220500Z 2206/2312 32003KT 2000 BR BKN003 TEMPO 2206/2210 0300 FG BKN001 BECMG 2210/2213 3500 SCT004 BKN006 PROB30 TEMPO 2210/2215 2500 -DZ BKN004 BECMG 2216/2218 6000 NSW SCT012 BKN020 PROB30 TEMPO 2306/2308 4500 BR MIFG=

    Metar: METAR EBBR 221020Z 28004KT 240V310 3700 BR FEW005 BKN020 09/06 Q1036 NOSIG=

  • Düsseldorf (EDDL)

    Taf: TAF AMD EDDL 220730Z 2207/2312 33005KT 1000 -DZ BR OVC003 TEMPO 2207/2209 0700 FG OVC000 BECMG 2208/2212 05005KT 6000 BKN012 BECMG 2212/2215 BKN030 BECMG 2300/2303 14007KT=

    Metar: nil

  • Luxeuil (LFSX)

    Taf: TAF LFSX 220800Z 2209/2309 05005G15KT CAVOK TEMPO 2300/2307 2000 BR PROB30 TEMPO 2301/2305 0500 FG=

    Metar: nil

  • Eindhoven (EHEH)

    Taf: TAF EHEH 220502Z 2206/2312 30005KT 3500 BR BKN005 PROB30 2206/2208 VRB02KT 0600 FG OVC001 BECMG 2209/2212 07005KT 8000 NSW SCT015 BECMG 2212/2215 SCT020=

    Metar: nil

  • Niederrhein (EDLV)

    Taf: TAF AMD EDLV 220930Z 2209/2306 VRB03KT 0700 FG OVC001 BECMG 2209/2212 4000 BR BKN012 BECMG 2212/2215 9999 BKN030 BECMG 2300/2303 12005KT=

    Metar: nil

  • Dortmund/Wickede (EDLW)

    Taf: TAF AMD EDLW 220738Z 2207/2306 33004KT 1400 -DZ BR BKN001 TEMPO 2207/2209 0700 DZ FG OVC000 BECMG 2207/2211 3000 BR BKN010 BECMG 2212/2215 06007KT 9000 BKN040 BECMG 2219/2221 12006KT=

    Metar: nil

  • Stuttgart/Echterdingen (EDDS)

    Taf: TAF AMD EDDS 220612Z 2206/2306 27006KT 9999 SCT010 BKN025 PROB30 TEMPO 2206/2210 2000 -DZ BR BKN005 BECMG 2207/2211 35006KT TEMPO 2210/2212 BKN012 BECMG 2216/2219 06006KT=

    Metar: METAR EDDS 221020Z 34006KT 300V030 9999 SCT010 SCT013 BKN042 10/07 Q1034 TEMPO BKN010=

  • Basel-Mühlhausen (LFSB)

    Taf: TAF LFSB 220500Z 2206/2306 VRB02KT 9999 BKN040 BECMG 2211/2213 36010KT BECMG 2222/2224 30003KT 3000 BR NSC TEMPO 2300/2306 0300 FG OVC003=

    Metar: METAR COR LFSB 221000Z 36003KT 9999 FEW030 BKN040 09/04 Q1034 NOSIG=

  • Lille (LFQQ)

    Taf: TAF LFQQ 220500Z 2206/2312 VRB03KT 0600 FG VV/// TEMPO 2206/2209 0200 FG BECMG 2209/2212 3000 BR OVC003 BECMG 2212/2215 9999 NSW SCT012 BECMG 2221/2224 3000 BR BECMG 2300/2304 0300 FG VV/// BECMG 2308/2310 12010KT CAVOK=

    Metar: nil

  • Paris/Charles de Gaulle (LFPG)

    Taf: TAF LFPG 220500Z 2206/2312 04003KT 3000 BR SCT008 TX15/2215Z TN03/2206Z TEMPO 2206/2210 0500 BCFG BKN008 PROB30 TEMPO 2206/2209 0200 FG VV/// BECMG 2211/2213 09006KT CAVOK PROB40 TEMPO 2223/2309 4000 BR PROB30 TEMPO 2306/2308 0800 BCFG=

    Metar: nil

  • Paderborn/Lippstadt (EDLP)

    Taf: TAF AMD EDLP 220741Z 2207/2306 31006KT 3000 BR BKN001 TEMPO 2207/2210 1200 -DZ BR OVC004 BECMG 2208/2211 07005KT BECMG 2210/2213 BKN013 BECMG 2213/2216 9999 BKN035 BECMG 2218/2221 14008KT=

    Metar: nil

  • Paris/Le Bourget (LFPB)

    Taf: TAF LFPB 220500Z 2206/2306 04003KT 3000 BR SCT010 TEMPO 2206/2210 0800 BCFG BKN010 PROB30 TEMPO 2206/2209 0200 FG BKN002 BECMG 2211/2213 09006KT CAVOK PROB40 TEMPO 2223/2306 4000 BR=

    Metar: METAR LFPB 221000Z AUTO VRB03KT 3800 BR NSC 09/07 Q1035 BECMG 9999 NSW=

  • Rotterdam (EHRD)

    Taf: TAF EHRD 220518Z 2206/2312 VRB03KT 2000 BR BKN002 PROB40 2206/2209 1400 BKN001 BECMG 2208/2211 5000 SCT004 BKN016 BECMG 2211/2213 10005KT 8000 NSW BKN020 BECMG 2221/2224 6000 NSC BECMG 2307/2310 13010KT CAVOK=

    Metar: nil

  • Zürich/Kloten (LSZH)

    Taf: TAF LSZH 220825Z 2209/2315 VRB03KT 9999 BKN040 TX12/2214Z TN02/2306Z TX10/2314Z BECMG 2213/2216 05008KT PROB40 2302/2310 BKN010 BECMG 2309/2312 05012KT=

    Metar: METAR LSZH 221020Z VRB02KT 9999 FEW039 BKN044 10/04 Q1034 NOSIG=

  • Oostende/Intl (EBOS)

    Taf: TAF EBOS 220500Z 2206/2312 17003KT 2000 BR BKN003 TEMPO 2206/2211 0400 FG BKN001 BECMG 2212/2214 3500 SCT003 BKN006 TEMPO 2215/2218 SCT007 BKN012 BECMG 2222/2224 11010KT 6000 NSW SCT012=

    Metar: nil

  • Paris/Orly (LFPO)

    Taf: TAF LFPO 220500Z 2206/2312 VRB02KT 6000 NSC PROB40 TEMPO 2206/2208 4000 BR PROB30 TEMPO 2206/2208 0500 BCFG BKN002 BECMG 2208/2210 08005KT CAVOK=

    Metar: nil

  • Beauvais (LFOB)

    Taf: TAF LFOB 220500Z 2206/2306 VRB02KT 0600 FG VV/// TEMPO 2206/2209 0200 BECMG 2209/2211 3000 BR OVC003 BECMG 2211/2213 CAVOK BECMG 2221/2224 4000 BR BKN020 PROB30 2302/2306 0800 BCFG NSC=

    Metar: nil

  • Münster/Intl (EDDG)

    Taf: TAF AMD EDDG 220734Z 2207/2306 33004KT 2000 BR BKN003 TEMPO 2207/2209 3500 -DZ SCT003 BECMG 2209/2212 04006KT 9999 SCT040 BECMG 2215/2218 10004KT=

    Metar: METAR EDDG 221020Z 01004KT 330V050 3500 BR BKN009 BKN030 10/08 Q1036 BECMG SCT006=

  • Illesheim (ETIK)

    Taf: TAF AMD ETIK 220753Z 2207/2312 29006KT 8000 BR BKN040 QNH3040INS TEMPO 2207/2209 30012KT 5000 -SHRA BKN015 BECMG 2210/2211 29009KT 9999 NSW BKN015 QNH3042INS BECMG 2220/2221 06009KT 9999 BKN020 QNH3055INS BECMG 2306/2307 06012KT 9999 FEW040 QNH3059INS TX10/2213Z TNM01/2302Z=

    Metar: nil

  • Duebendorf (LSMD)

    Taf: TAF LSMD 220925Z 2210/2316 VRB03KT 9999 BKN040 PROB40 2302/2310 BKN010 BECMG 2310/2312 05010KT=

    Metar: nil

  • Villacoublay (LFPV)

    Taf: TAF LFPV 220800Z 2209/2309 03003KT 6000 NSC FM220930 04004KT CAVOK FM230400 VRB02KT 3500 BCFG NSC BECMG 2306/2307 6000 NSW=

    Metar: nil

  • Payerne (LSMP)

    Taf: TAF LSMP 220925Z 2210/2316 VRB03KT 9999 FEW060 BECMG 2213/2216 04010KT PROB40 2300/2309 BKN012 TEMPO 2310/2316 04015G25KT=

    Metar: nil

  • Amsterdam/Schipol (EHAM)

    Taf: TAF EHAM 220503Z 2206/2312 VRB03KT 4000 BR FEW003 OVC016 PROB30 2206/2209 2500 BKN003 BECMG 2210/2213 09006KT 8000 NSW BKN020 BECMG 2221/2224 6000 NSC BECMG 2307/2310 13010KT CAVOK=

    Metar: METAR EHAM 221025Z VRB02KT 8000 BKN019 10/08 Q1037 TEMPO 7000=

  • Emmen (LSME)

    Taf: TAF LSME 220925Z 2210/2316 VRB03KT 9999 BKN050 BECMG 2302/2304 BKN008 PROB40 2303/2309 4000 BR BECMG 2308/2310 BKN012 BECMG 2310/2313 05010KT CAVOK=

    Metar: nil

  • Friedrichshafen (EDNY)

    Taf: TAF EDNY 220500Z 2206/2306 VRB03KT 9999 SCT035 TEMPO 2206/2212 3500 -RADZ BKN014 PROB30 TEMPO 2212/2216 4000 SHRA BKN012CB BECMG 2212/2214 04006KT=

    Metar: nil

  • Alpnach (LSMA)

    Taf: TAF LSMA 220925Z 2210/2316 VRB03KT 9999 FEW055 BKN065 PROB40 2303/2311 BKN010 BECMG 2311/2313 CAVOK TEMPO 2311/2313 05010KT=

    Metar: nil

  • Meiringen (LSMM)

    Taf: TAF LSMM 220925Z 2210/2316 VRB02KT 9999 FEW070 SCT130 BECMG 2213/2215 07010KT BECMG 2220/2223 CAVOK PROB40 2302/2307 VRB03KT 4000 BR BKN008=

    Metar: nil

  • Nürnberg (EDDN)

    Taf: TAF EDDN 220500Z 2206/2306 32006KT 9999 BKN020 TEMPO 2206/2208 2500 -RADZ BKN008 PROB30 TEMPO 2208/2214 4000 SHRA BKN008 BKN012CB BECMG 2214/2216 02004KT=

    Metar: METAR EDDN 221020Z 34010KT 310V010 9999 SCT020 BKN040 10/05 Q1033 NOSIG=

  • Rouen (LFOP)

    Taf: TAF AMD LFOP 220833Z 2208/2306 VRB02KT 1500 BR NSC TEMPO 2208/2209 0600 FG OVC001 BECMG 2209/2211 8000 NSW BECMG 2221/2224 1200 BCFG PROB30 2300/2306 0300 FG=

    Metar: nil

  • Evreux (LFOE)

    Taf: TAF LFOE 220800Z 2209/2309 VRB02KT 2000 BR NSC BECMG 2209/2212 09003KT 8000 NSW PROB40 TEMPO 2209/2212 SCT002 BECMG 2220/2222 2000 BR PROB40 2300/2309 0800 FG VV///=

    Metar: nil

  • Erfurt/Bindersleben (EDDE)

    Taf: TAF EDDE 220500Z 2206/2306 33009KT 8000 BKN015 BECMG 2206/2209 BKN006 TEMPO 2208/2219 2000 -DZ BR BKN004 PROB30 TEMPO 2208/2218 0500 -DZ FG OVC001 BECMG 2208/2211 05008KT BECMG 2216/2219 BKN015 TEMPO 2219/2224 4000 BR BKN008 BECMG 2220/2223 15004KT=

    Metar: nil